createdAt,value
2022-07-27T00:01:39.780Z,22.44
2022-07-27T00:04:06.253Z,22.41
2022-07-27T00:06:32.685Z,22.42
2022-07-27T00:08:59.001Z,22.41
2022-07-27T00:11:25.349Z,22.41
2022-07-27T00:13:51.696Z,22.41
2022-07-27T00:16:18.149Z,22.40
2022-07-27T00:18:44.560Z,22.42
2022-07-27T00:21:11.154Z,22.40
2022-07-27T00:23:37.603Z,22.40
2022-07-27T00:26:03.926Z,22.39
2022-07-27T00:28:30.247Z,22.39
2022-07-27T00:30:56.616Z,22.40
2022-07-27T00:33:22.942Z,22.39
2022-07-27T00:35:49.380Z,22.38
2022-07-27T00:38:16.523Z,22.38
2022-07-27T00:40:43.056Z,22.38
2022-07-27T00:43:09.559Z,22.37
2022-07-27T00:45:35.990Z,22.37
2022-07-27T00:48:02.320Z,22.37
2022-07-27T00:50:28.626Z,22.37
2022-07-27T00:52:55.322Z,22.38
2022-07-27T00:55:21.697Z,22.37
2022-07-27T00:57:58.042Z,22.37
2022-07-27T01:00:26.235Z,22.35
2022-07-27T01:02:52.632Z,22.36
2022-07-27T01:05:19.186Z,22.34
2022-07-27T01:07:47.296Z,22.34
2022-07-27T01:10:13.613Z,22.35
2022-07-27T01:12:39.957Z,22.35
2022-07-27T01:15:06.566Z,22.34
2022-07-27T01:17:33.626Z,22.33
2022-07-27T01:20:00.013Z,22.33
2022-07-27T01:22:26.998Z,22.34
2022-07-27T01:24:53.383Z,22.33
2022-07-27T01:27:19.842Z,22.33
2022-07-27T01:29:46.209Z,22.32
2022-07-27T01:32:12.629Z,22.32
2022-07-27T01:34:39.158Z,22.30
2022-07-27T01:37:05.663Z,22.30
2022-07-27T01:39:32.591Z,22.29
2022-07-27T01:41:59.598Z,22.30
2022-07-27T01:44:25.980Z,22.32
2022-07-27T01:46:52.459Z,22.29
2022-07-27T01:49:19.125Z,22.28
2022-07-27T01:51:45.500Z,22.29
2022-07-27T01:54:12.370Z,22.28
2022-07-27T01:56:38.705Z,22.28
2022-07-27T01:59:05.116Z,22.27
2022-07-27T02:01:31.525Z,22.27
2022-07-27T02:03:57.908Z,22.27
2022-07-27T02:06:24.350Z,22.25
2022-07-27T02:08:50.667Z,22.27
2022-07-27T02:11:35.464Z,22.26
2022-07-27T02:14:01.773Z,22.25
2022-07-27T02:16:28.207Z,22.25
2022-07-27T02:18:54.853Z,22.28
2022-07-27T02:21:21.170Z,22.25
2022-07-27T02:23:48.324Z,22.22
2022-07-27T02:26:14.917Z,22.24
2022-07-27T02:28:41.283Z,22.24
2022-07-27T02:31:07.642Z,22.22
2022-07-27T02:33:34.053Z,22.22
2022-07-27T02:36:00.341Z,22.22
2022-07-27T02:38:26.696Z,22.22
2022-07-27T02:40:53.043Z,22.20
2022-07-27T02:43:19.425Z,22.24
2022-07-27T02:45:46.522Z,22.20
2022-07-27T02:48:13.280Z,22.20
2022-07-27T02:50:39.764Z,22.19
2022-07-27T02:53:06.078Z,22.18
2022-07-27T02:55:32.404Z,22.19
2022-07-27T02:57:58.714Z,22.18
2022-07-27T03:00:25.410Z,22.19
2022-07-27T03:02:51.739Z,22.17
2022-07-27T03:05:18.103Z,22.18
2022-07-27T03:10:20.630Z,22.19
2022-07-27T03:12:46.954Z,22.17
2022-07-27T03:15:13.290Z,22.17
2022-07-27T03:17:39.621Z,22.16
2022-07-27T03:20:08.099Z,22.16
2022-07-27T03:22:37.009Z,22.16
2022-07-27T03:25:03.699Z,22.15
2022-07-27T03:27:30.069Z,22.15
2022-07-27T03:29:56.587Z,22.15
2022-07-27T03:32:22.925Z,22.15
2022-07-27T03:34:49.305Z,22.14
2022-07-27T03:37:17.126Z,22.14
2022-07-27T03:39:43.482Z,22.14
2022-07-27T03:42:09.792Z,22.13
2022-07-27T03:44:36.121Z,22.13
2022-07-27T03:47:02.444Z,22.13
2022-07-27T03:49:28.823Z,22.13
2022-07-27T03:51:55.208Z,22.12
2022-07-27T03:54:21.559Z,22.13
2022-07-27T03:56:47.868Z,22.12
2022-07-27T03:59:14.734Z,22.10
2022-07-27T04:01:41.491Z,22.11
2022-07-27T04:04:07.980Z,22.11
2022-07-27T04:06:34.318Z,22.11
2022-07-27T04:09:08.624Z,22.10
2022-07-27T04:11:35.651Z,22.10
2022-07-27T04:14:04.395Z,22.10
2022-07-27T04:16:35.651Z,22.09
2022-07-27T04:19:02.458Z,22.09
2022-07-27T04:21:28.777Z,22.09
2022-07-27T04:24:00.607Z,22.09
2022-07-27T04:26:27.059Z,22.09
2022-07-27T04:28:53.379Z,22.09
2022-07-27T04:31:19.772Z,22.08
2022-07-27T04:33:46.135Z,22.08
2022-07-27T04:36:12.486Z,22.07
2022-07-27T04:38:38.851Z,22.08
2022-07-27T04:41:05.359Z,22.06
2022-07-27T04:43:31.667Z,22.06
2022-07-27T04:45:58.051Z,22.06
2022-07-27T04:48:24.499Z,22.06
2022-07-27T04:50:50.898Z,22.06
2022-07-27T04:53:17.735Z,22.06
2022-07-27T04:55:45.182Z,22.06
2022-07-27T04:58:12.119Z,22.06
2022-07-27T05:00:38.426Z,22.05
2022-07-27T05:03:05.020Z,22.05
2022-07-27T05:05:31.596Z,22.05
2022-07-27T05:07:57.937Z,22.05
2022-07-27T05:10:25.498Z,22.04
2022-07-27T05:12:51.875Z,22.05
2022-07-27T05:15:18.576Z,22.05
2022-07-27T05:17:44.974Z,22.04
2022-07-27T05:20:11.745Z,22.04
2022-07-27T05:22:40.109Z,22.04
2022-07-27T05:25:07.024Z,22.03
2022-07-27T05:27:33.875Z,22.03
2022-07-27T05:30:00.254Z,22.03
2022-07-27T05:32:26.585Z,22.03
2022-07-27T05:34:52.916Z,22.03
2022-07-27T05:37:19.297Z,22.04
2022-07-27T05:39:45.699Z,22.03
2022-07-27T05:42:12.035Z,22.04
2022-07-27T05:44:38.367Z,22.04
2022-07-27T05:47:06.243Z,22.03
2022-07-27T05:49:32.936Z,22.00
2022-07-27T05:51:59.305Z,21.89
2022-07-27T05:54:25.646Z,21.86
2022-07-27T05:56:52.313Z,21.78
2022-07-27T05:59:18.670Z,21.75
2022-07-27T06:01:45.148Z,21.73
2022-07-27T06:04:14.633Z,21.68
2022-07-27T06:06:59.913Z,21.69
2022-07-27T06:09:26.244Z,21.68
2022-07-27T06:11:52.665Z,21.69
2022-07-27T06:14:19.375Z,21.72
2022-07-27T06:16:45.812Z,21.74
2022-07-27T06:19:12.455Z,21.74
2022-07-27T06:21:39.147Z,21.72
2022-07-27T06:24:05.677Z,21.66
2022-07-27T06:26:32.068Z,21.67
2022-07-27T06:29:01.051Z,21.72
2022-07-27T06:31:29.539Z,21.76
2022-07-27T06:34:02.615Z,21.78
2022-07-27T06:36:29.426Z,21.80
2022-07-27T06:38:55.872Z,21.82
2022-07-27T06:41:22.279Z,21.80
2022-07-27T06:43:48.634Z,21.82
2022-07-27T06:46:15.117Z,21.85
2022-07-27T06:48:41.623Z,21.84
2022-07-27T06:51:08.343Z,21.84
2022-07-27T06:53:36.269Z,21.84
2022-07-27T06:56:04.397Z,21.84
2022-07-27T06:58:31.683Z,21.82
2022-07-27T07:00:59.653Z,21.84
2022-07-27T07:03:26.191Z,21.83
2022-07-27T07:05:52.603Z,21.83
2022-07-27T07:08:18.938Z,21.82
2022-07-27T07:10:45.745Z,21.83
2022-07-27T07:13:12.125Z,21.85
2022-07-27T07:15:39.685Z,21.87
2022-07-27T07:18:07.117Z,21.90
2022-07-27T07:20:34.079Z,21.92
2022-07-27T07:23:00.788Z,21.94
2022-07-27T07:25:27.940Z,21.95
2022-07-27T07:27:54.889Z,21.98
2022-07-27T07:30:21.723Z,21.99
2022-07-27T07:32:48.454Z,22.01
2022-07-27T07:35:15.002Z,22.03
2022-07-27T07:37:41.334Z,22.01
2022-07-27T07:40:32.565Z,22.01
2022-07-27T07:42:56.834Z,22.03
2022-07-27T07:45:23.884Z,22.03
2022-07-27T07:47:51.038Z,22.04
2022-07-27T07:50:17.980Z,22.04
2022-07-27T07:52:44.618Z,22.03
2022-07-27T07:55:11.239Z,22.04
2022-07-27T07:57:38.015Z,22.05
2022-07-27T08:00:05.033Z,22.05
2022-07-27T08:02:31.543Z,22.04
2022-07-27T08:04:59.757Z,22.05
2022-07-27T08:07:26.393Z,22.05
2022-07-27T08:09:52.786Z,22.05
2022-07-27T08:12:19.309Z,22.05
2022-07-27T08:14:45.764Z,22.05
2022-07-27T08:17:12.181Z,22.05
2022-07-27T08:19:40.411Z,22.05
2022-07-27T08:22:06.953Z,22.05
2022-07-27T08:24:33.412Z,22.04
2022-07-27T08:27:00.195Z,22.04
2022-07-27T08:29:36.906Z,22.04
2022-07-27T08:32:04.074Z,22.04
2022-07-27T08:34:32.593Z,22.04
2022-07-27T08:36:58.981Z,22.05
2022-07-27T08:40:20.070Z,22.05
2022-07-27T08:42:11.782Z,22.05
2022-07-27T08:44:42.053Z,22.06
2022-07-27T08:47:09.658Z,22.06
2022-07-27T08:49:43.454Z,22.06
2022-07-27T08:52:11.658Z,22.08
2022-07-27T08:54:39.145Z,22.08
2022-07-27T08:57:06.876Z,22.06
2022-07-27T08:59:33.279Z,22.09
2022-07-27T09:02:03.374Z,22.08
2022-07-27T09:04:30.787Z,22.10
2022-07-27T09:06:57.195Z,22.09
2022-07-27T09:09:23.686Z,22.10
2022-07-27T09:12:03.755Z,22.11
2022-07-27T09:14:30.944Z,22.11
2022-07-27T09:17:46.515Z,22.11
2022-07-27T09:19:56.837Z,22.12
2022-07-27T09:22:41.566Z,22.12
2022-07-27T09:25:08.807Z,22.15
2022-07-27T09:27:35.390Z,22.13
2022-07-27T09:30:03.744Z,22.15
2022-07-27T09:32:30.424Z,22.14
2022-07-27T09:34:56.845Z,22.15
2022-07-27T09:37:27.164Z,22.15
2022-07-27T09:40:12.112Z,22.16
2022-07-27T09:43:14.522Z,22.16
2022-07-27T09:45:35.420Z,22.17
2022-07-27T09:48:15.921Z,22.18
2022-07-27T09:50:58.419Z,22.19
2022-07-27T09:53:42.476Z,22.19
2022-07-27T09:56:11.372Z,22.20
2022-07-27T09:58:43.771Z,22.20
2022-07-27T10:01:12.155Z,22.21
2022-07-27T10:03:39.400Z,22.21
2022-07-27T10:06:06.171Z,22.20
2022-07-27T10:08:32.970Z,22.24
2022-07-27T10:10:59.452Z,22.22
2022-07-27T10:13:30.164Z,22.24
2022-07-27T10:15:56.956Z,22.25
2022-07-27T10:18:36.131Z,22.25
2022-07-27T10:21:07.174Z,22.24
2022-07-27T10:23:35.845Z,22.25
2022-07-27T10:26:12.029Z,22.26
2022-07-27T10:28:57.500Z,22.27
2022-07-27T10:31:25.875Z,22.26
2022-07-27T10:33:53.824Z,22.27
2022-07-27T10:36:23.057Z,22.28
2022-07-27T10:38:50.774Z,22.29
2022-07-27T10:41:20.977Z,22.28
2022-07-27T10:43:47.710Z,22.29
2022-07-27T10:46:19.681Z,22.28
2022-07-27T10:48:49.111Z,22.27
2022-07-27T10:51:18.654Z,22.27
2022-07-27T10:56:45.503Z,22.27
2022-07-27T10:59:11.909Z,22.27
2022-07-27T11:01:54.870Z,22.27
2022-07-27T11:04:21.643Z,22.29
2022-07-27T11:07:23.124Z,22.29
2022-07-27T11:12:28.180Z,22.30
2022-07-27T11:14:55.905Z,22.32
2022-07-27T11:17:52.432Z,22.33
2022-07-27T11:20:10.752Z,22.33
2022-07-27T11:25:26.898Z,22.34
2022-07-27T11:27:53.338Z,22.33
2022-07-27T11:30:26.361Z,22.34
2022-07-27T11:32:53.391Z,22.35
2022-07-27T11:35:20.458Z,22.35
2022-07-27T11:37:58.233Z,22.37
2022-07-27T11:40:53.821Z,22.38
2022-07-27T11:43:11.057Z,22.39
2022-07-27T11:45:41.917Z,22.40
2022-07-27T11:48:12.018Z,22.41
2022-07-27T11:50:58.316Z,22.42
2022-07-27T11:53:24.790Z,22.42
2022-07-27T11:55:51.344Z,22.43
2022-07-27T11:58:18.522Z,22.44
2022-07-27T12:00:44.917Z,22.46
2022-07-27T12:03:20.655Z,22.45
2022-07-27T12:05:56.855Z,22.47
2022-07-27T12:08:23.638Z,22.48
2022-07-27T12:11:00.051Z,22.51
2022-07-27T12:13:33.383Z,22.51
2022-07-27T12:15:59.979Z,22.52
2022-07-27T12:18:26.450Z,22.52
2022-07-27T12:20:53.479Z,22.53
2022-07-27T12:23:19.932Z,22.53
2022-07-27T12:25:47.057Z,22.56
2022-07-27T12:28:15.550Z,22.57
2022-07-27T12:30:49.674Z,22.58
2022-07-27T12:33:25.164Z,22.58
2022-07-27T12:35:51.713Z,22.60
2022-07-27T12:38:18.223Z,22.60
2022-07-27T12:40:46.361Z,22.60
2022-07-27T12:43:16.185Z,22.63
2022-07-27T12:45:42.942Z,22.63
2022-07-27T12:48:11.190Z,22.63
2022-07-27T12:50:38.173Z,22.65
2022-07-27T12:53:04.888Z,22.65
2022-07-27T12:55:31.489Z,22.66
2022-07-27T12:57:58.039Z,22.66
2022-07-27T13:00:32.700Z,22.68
2022-07-27T13:03:00.857Z,22.68
2022-07-27T13:05:27.659Z,22.69
2022-07-27T13:07:54.197Z,22.68
2022-07-27T13:10:20.742Z,22.68
2022-07-27T13:12:48.488Z,22.68
2022-07-27T13:15:15.305Z,22.67
2022-07-27T13:17:42.357Z,22.69
2022-07-27T13:20:09.938Z,22.69
2022-07-27T13:22:40.119Z,22.70
2022-07-27T13:25:15.385Z,22.70
2022-07-27T13:27:43.855Z,22.69
2022-07-27T13:30:11.004Z,22.72
2022-07-27T13:32:38.318Z,22.73
2022-07-27T13:35:05.636Z,22.74
2022-07-27T13:37:32.109Z,22.76
2022-07-27T13:39:58.519Z,22.77
2022-07-27T13:42:26.111Z,22.77
2022-07-27T13:45:07.814Z,22.77
2022-07-27T13:47:35.529Z,22.78
2022-07-27T13:50:02.007Z,22.78
2022-07-27T13:52:28.521Z,22.79
2022-07-27T13:54:55.342Z,22.79
2022-07-27T13:57:21.766Z,22.80
2022-07-27T13:59:48.185Z,22.80
2022-07-27T14:02:14.950Z,22.80
2022-07-27T14:04:42.933Z,22.82
2022-07-27T14:07:10.066Z,22.82
2022-07-27T14:09:54.995Z,22.83
2022-07-27T14:12:21.463Z,22.84
2022-07-27T14:14:47.898Z,22.85
2022-07-27T14:17:14.381Z,22.85
2022-07-27T14:19:40.818Z,22.85
2022-07-27T14:22:10.628Z,22.86
2022-07-27T14:24:39.910Z,22.86
2022-07-27T14:27:06.657Z,22.86
2022-07-27T14:29:33.872Z,22.86
2022-07-27T14:32:00.783Z,22.87
2022-07-27T14:34:27.233Z,22.87
2022-07-27T14:36:53.793Z,22.86
2022-07-27T14:39:20.206Z,22.87
2022-07-27T14:41:46.877Z,22.89
2022-07-27T14:44:14.101Z,22.90
2022-07-27T14:46:40.754Z,22.90
2022-07-27T14:49:08.504Z,22.90
2022-07-27T14:51:35.710Z,22.91
2022-07-27T14:54:03.113Z,22.90
2022-07-27T14:56:29.638Z,22.91
2022-07-27T14:58:56.083Z,22.91
2022-07-27T15:01:22.566Z,22.91
2022-07-27T15:03:49.280Z,22.92
2022-07-27T15:06:15.765Z,22.92
2022-07-27T15:08:42.210Z,22.92
2022-07-27T15:11:09.807Z,22.94
2022-07-27T15:13:36.380Z,22.94
2022-07-27T15:16:03.433Z,22.93
2022-07-27T15:18:36.381Z,22.93
2022-07-27T15:21:08.532Z,22.95
2022-07-27T15:23:40.487Z,22.94
2022-07-27T15:26:06.902Z,22.93
2022-07-27T15:28:33.338Z,22.94
2022-07-27T15:30:59.807Z,22.94
2022-07-27T15:33:26.839Z,22.96
2022-07-27T15:35:53.372Z,22.95
2022-07-27T15:38:19.764Z,22.95
2022-07-27T15:40:46.214Z,22.96
2022-07-27T15:43:13.708Z,22.95
2022-07-27T15:45:41.515Z,22.95
2022-07-27T15:48:08.794Z,22.96
2022-07-27T15:50:36.168Z,22.95
2022-07-27T15:53:02.665Z,22.96
2022-07-27T15:55:29.061Z,22.96
2022-07-27T15:57:55.441Z,22.94
2022-07-27T16:00:21.881Z,22.94
2022-07-27T16:02:48.361Z,22.95
2022-07-27T16:05:14.834Z,22.94
2022-07-27T16:07:41.858Z,22.93
2022-07-27T16:10:08.536Z,22.94
2022-07-27T16:12:38.187Z,22.95
2022-07-27T16:15:05.226Z,22.97
2022-07-27T16:17:31.687Z,22.97
2022-07-27T16:19:58.112Z,22.99
2022-07-27T16:22:25.007Z,23.00
2022-07-27T16:24:51.705Z,23.04
2022-07-27T16:27:18.229Z,23.06
2022-07-27T16:29:45.187Z,23.06
2022-07-27T16:32:12.328Z,23.06
2022-07-27T16:34:39.544Z,23.05
2022-07-27T16:37:06.094Z,23.04
2022-07-27T16:39:33.625Z,23.04
2022-07-27T16:42:00.374Z,23.04
2022-07-27T16:44:26.792Z,23.02
2022-07-27T16:46:53.666Z,23.02
2022-07-27T16:49:20.255Z,23.02
2022-07-27T16:51:47.370Z,23.01
2022-07-27T16:54:14.010Z,23.00
2022-07-27T16:56:40.396Z,22.99
2022-07-27T16:59:06.874Z,22.99
2022-07-27T17:01:34.109Z,22.98
2022-07-27T17:04:00.650Z,22.99
2022-07-27T17:06:27.159Z,22.98
2022-07-27T17:08:54.002Z,22.97
2022-07-27T17:11:22.013Z,22.97
2022-07-27T17:13:49.007Z,22.96
2022-07-27T17:16:15.769Z,22.96
2022-07-27T17:18:42.263Z,22.96
2022-07-27T17:21:12.659Z,22.95
2022-07-27T17:23:40.010Z,22.95
2022-07-27T17:26:07.370Z,22.93
2022-07-27T17:31:02.085Z,22.94
2022-07-27T17:33:30.036Z,22.94
2022-07-27T17:35:56.530Z,22.92
2022-07-27T17:38:22.986Z,22.92
2022-07-27T17:40:49.378Z,22.92
2022-07-27T17:43:15.736Z,22.91
2022-07-27T17:45:42.184Z,22.90
2022-07-27T17:48:08.536Z,22.90
2022-07-27T17:50:34.978Z,22.90
2022-07-27T17:53:01.731Z,22.89
2022-07-27T17:55:28.333Z,22.89
2022-07-27T17:57:55.357Z,22.87
2022-07-27T18:00:21.738Z,22.89
2022-07-27T18:02:48.126Z,22.87
2022-07-27T18:05:14.660Z,22.87
2022-07-27T18:07:41.066Z,22.86
2022-07-27T18:10:08.073Z,22.85
2022-07-27T18:12:35.560Z,22.86
2022-07-27T18:15:37.419Z,22.85
2022-07-27T18:18:04.451Z,22.83
2022-07-27T18:20:30.995Z,22.84
2022-07-27T18:22:57.518Z,22.84
2022-07-27T18:25:25.388Z,22.82
2022-07-27T18:27:51.816Z,22.82
2022-07-27T18:30:18.516Z,22.82
2022-07-27T18:32:47.647Z,22.81
2022-07-27T18:35:14.221Z,22.81
2022-07-27T18:37:41.166Z,22.80
2022-07-27T18:40:09.096Z,22.82
2022-07-27T18:42:35.852Z,22.78
2022-07-27T18:45:02.251Z,22.80
2022-07-27T18:47:28.640Z,22.79
2022-07-27T18:49:54.996Z,22.78
2022-07-27T18:52:21.373Z,22.78
2022-07-27T18:54:47.760Z,22.79
2022-07-27T18:57:14.122Z,22.78
2022-07-27T18:59:41.174Z,22.77
2022-07-27T19:02:08.248Z,22.77
2022-07-27T19:04:34.868Z,22.78
2022-07-27T19:07:01.303Z,22.76
2022-07-27T19:09:28.230Z,22.76
2022-07-27T19:11:54.615Z,22.76
2022-07-27T19:14:23.029Z,22.76
2022-07-27T19:16:50.371Z,22.76
2022-07-27T19:19:22.285Z,22.75
2022-07-27T19:21:49.458Z,22.74
2022-07-27T19:24:15.879Z,22.73
2022-07-27T19:26:42.460Z,22.72
2022-07-27T19:29:09.740Z,22.72
2022-07-27T19:31:36.986Z,22.71
2022-07-27T19:34:03.821Z,22.73
2022-07-27T19:36:30.350Z,22.71
2022-07-27T19:38:56.991Z,22.71
2022-07-27T19:41:23.388Z,22.70
2022-07-27T19:43:49.798Z,22.71
2022-07-27T19:46:16.276Z,22.70
2022-07-27T19:48:42.781Z,22.71
2022-07-27T19:51:09.266Z,22.71
2022-07-27T19:53:35.772Z,22.70
2022-07-27T19:56:02.334Z,22.69
2022-07-27T19:58:28.764Z,22.69
2022-07-27T20:00:55.838Z,22.69
2022-07-27T20:03:22.921Z,22.68
2022-07-27T20:05:49.292Z,22.68
2022-07-27T20:08:15.743Z,22.68
2022-07-27T20:10:42.544Z,22.67
2022-07-27T20:13:09.927Z,22.68
2022-07-27T20:15:36.309Z,22.68
2022-07-27T20:18:02.964Z,22.67
2022-07-27T20:20:29.458Z,22.66
2022-07-27T20:22:55.860Z,22.67
2022-07-27T20:25:22.857Z,22.67
2022-07-27T20:27:49.275Z,22.65
2022-07-27T20:30:17.224Z,22.65
2022-07-27T20:32:44.399Z,22.66
2022-07-27T20:35:10.878Z,22.65
2022-07-27T20:37:37.329Z,22.64
2022-07-27T20:40:05.401Z,22.64
2022-07-27T20:42:32.312Z,22.65
2022-07-27T20:44:58.926Z,22.64
2022-07-27T20:47:27.073Z,22.64
2022-07-27T20:49:55.119Z,22.64
2022-07-27T20:52:21.942Z,22.65
2022-07-27T20:54:48.353Z,22.64
2022-07-27T20:57:14.762Z,22.62
2022-07-27T20:59:41.151Z,22.62
2022-07-27T21:02:08.015Z,22.62
2022-07-27T21:04:34.425Z,22.62
2022-07-27T21:07:00.816Z,22.62
2022-07-27T21:09:27.231Z,22.62
2022-07-27T21:11:53.666Z,22.60
2022-07-27T21:14:20.141Z,22.61
2022-07-27T21:16:46.608Z,22.60
2022-07-27T21:19:13.463Z,22.62
2022-07-27T21:21:40.198Z,22.60
2022-07-27T21:24:17.609Z,22.60
2022-07-27T21:26:48.633Z,22.59
2022-07-27T21:29:15.356Z,22.60
2022-07-27T21:31:41.821Z,22.60
2022-07-27T21:34:08.947Z,22.59
2022-07-27T21:36:35.360Z,22.59
2022-07-27T21:39:01.794Z,22.59
2022-07-27T21:41:28.255Z,22.58
2022-07-27T21:43:54.742Z,22.59
2022-07-27T21:46:21.114Z,22.59
2022-07-27T21:48:48.634Z,22.59
2022-07-27T21:51:18.206Z,22.58
2022-07-27T21:53:45.492Z,22.58
2022-07-27T21:56:13.611Z,22.58
2022-07-27T21:58:40.025Z,22.58
2022-07-27T22:01:08.917Z,22.57
2022-07-27T22:03:36.866Z,22.58
2022-07-27T22:06:04.529Z,22.57
2022-07-27T22:08:30.948Z,22.56
2022-07-27T22:10:57.376Z,22.56
2022-07-27T22:13:23.815Z,22.56
2022-07-27T22:15:50.225Z,22.55
2022-07-27T22:18:16.848Z,22.55
2022-07-27T22:20:43.237Z,22.55
2022-07-27T22:23:09.678Z,22.55
2022-07-27T22:25:36.773Z,22.55
2022-07-27T22:28:03.262Z,22.53
2022-07-27T22:30:29.717Z,22.53
2022-07-27T22:32:56.214Z,22.54
2022-07-27T22:35:22.865Z,22.53
2022-07-27T22:37:49.622Z,22.53
2022-07-27T22:40:15.982Z,22.53
2022-07-27T22:42:44.367Z,22.52
2022-07-27T22:45:11.151Z,22.52
2022-07-27T22:47:38.215Z,22.53
2022-07-27T22:50:05.287Z,22.52
2022-07-27T22:52:31.662Z,22.51
2022-07-27T22:54:58.076Z,22.51
2022-07-27T22:57:25.785Z,22.50
2022-07-27T22:59:52.482Z,22.51
2022-07-27T23:02:19.645Z,22.49
2022-07-27T23:04:46.314Z,22.51
2022-07-27T23:07:12.792Z,22.50
2022-07-27T23:09:39.194Z,22.51
2022-07-27T23:12:05.778Z,22.50
2022-07-27T23:14:32.198Z,22.48
2022-07-27T23:16:58.618Z,22.48
2022-07-27T23:19:25.045Z,22.48
2022-07-27T23:21:54.980Z,22.48
2022-07-27T23:24:29.176Z,22.48
2022-07-27T23:26:55.986Z,22.47
2022-07-27T23:29:22.362Z,22.47
2022-07-27T23:31:48.849Z,22.46
2022-07-27T23:34:15.665Z,22.48
2022-07-27T23:36:42.789Z,22.47
2022-07-27T23:39:09.764Z,22.47
2022-07-27T23:41:36.299Z,22.47
2022-07-27T23:44:02.742Z,22.46
2022-07-27T23:46:29.197Z,22.46
2022-07-27T23:48:55.659Z,22.47
2022-07-27T23:51:22.132Z,22.45
2022-07-27T23:53:48.556Z,22.46
2022-07-27T23:56:15.200Z,22.45
2022-07-27T23:58:41.717Z,22.44
